Hovedside
METAR-TAF:

METAR-TAF

Lufthavner :

Kalmar lufthavn

Kalmar, Sverige

breddegrad: 56-44N, lengdegrad: 016-18E, høyde over havet: 16 m

Gjeldene værobservasjon

Denne rapporten ble laget for 19 minutter siden, klokken 14:20 UTC
Vind 10 kt fra Nordøst
Temperatur 30°C
Luftfuktighet 35%
Trykk 1011 hPa
Sikt 10 km eller mer
ingen skyer under 1500 m og ingen bygeskyer

METAR: ESMQ 181420Z 05010KT CAVOK 30/13 Q1011

Tid: 16:39 (14:39 UTC)

Varsel

Denne rapporten ble laget for 9 minutter siden, klokken 14:30 UTC
Varsel gyldig fra 18. klokken 15 UTC til 18. klokken 19 UTC
Vind 8 kt fra Nordøst
Sikt 10 km eller mer
ingen skyer under 1500 m og ingen bygeskyer
Sannsynlighet 40%
fra 18. klokken 18 UTC til 18. klokken 19 UTC
Spredte skyer i en høyde av 6000 ft, Bygeskyer.
regnbyger

TAF: ESMQ 181430Z 1815/1819 05008KT CAVOK PROB40 1818/1819 SHRA SCT060CB

Værobservasjoner og værvarsel for over 4000 flyplasser (METAR- og TAF-rapporter).

Tilgjengelige stasjoner er representert av de røde og gule prikkene på kartet.

Hold musepekeren over prikken for å se navnet på stasjonen.

Klikk så for å se værobservasjoner og -varsler.

For å forandre kartet kan du klikke på den grønne knappen med svart kryss for å zoome inn, på den grønne knappen med strek for å zoome ut, eller på de grønne pilene for å se tilstøtende kart.


METAR-TAF: